Arm, MS

11:31 AM CDT on October 02, 2014 (GMT -0500)
Stronghope | Change Station
CLOSE
Current Station
Personal Weather Station
Location: Wesson, MS
Elevation: 269 ft
Nearby Weather Stations

Elev 269 ft 31.72 °N, 90.24 °W | Updated 28 seconds ago

Mostly Cloudy
Mostly Cloudy
85.9 °F
Feels Like 96 °F
N
5.0
Wind Variable Wind from SE
Gusts 10.0 mph

Today
High -- | Low -- °F
--% Chance of Precip.
Yesterday
High -- | Low -- °F
Precip. -- in
6:54 AM 6:43 PM
First Quarter, 60% visible
Pressure 30.02 in
Visibility 9.0 miles
Clouds Scattered Clouds 2200 ft
Mostly Cloudy 2700 ft
Mostly Cloudy 3100 ft
Heat Index 96 °F
Dew Point 76 °F
Humidity 73%
Rainfall 0.03 in
Snow Depth Not available.
UV 3 out of 12
Pollen 7.50 out of 12
Air Quality Not available.
Flu Activity Not available.
METAR K1R7 021555Z AUTO 17008KT 9SM SCT022 BKN027 BKN031 29/23 A3002 RMK AO2

More Conditions Fewer Conditions

Pressure 30.02 in
Visibility 9.0 miles
Clouds Scattered Clouds 2200 ft
Mostly Cloudy 2700 ft
Mostly Cloudy 3100 ft
Heat Index 96 °F
Dew Point 76 °F
Humidity 73%
Rainfall 0.03 in
Snow Depth Not available.
UV 3 out of 12
Pollen 7.50 out of 12
Air Quality Not available.
Flu Activity Not available.
METAR K1R7 021555Z AUTO 17008KT 9SM SCT022 BKN027 BKN031 29/23 A3002 RMK AO2

More Conditions Fewer Conditions

10-Day Weather Forecast

Almanac

Astronomy

Oct. 02, 2014 Rise Set
Actual Time 6:54 AM CDT 6:43 PM CDT
Civil Twilight 6:30 AM CDT 7:08 PM CDT
Nautical Twilight 6:02 AM CDT 7:36 PM CDT
Astronomical Twilight 5:33 AM CDT 8:04 PM CDT
Moon 2:31 PM CDT 12:31 AM CDT
Length of Visible Light 12h 37m
Length of Day
11h 49m
Tomorrow will be 1m 54s shorter.
First Quarter, 60% of the Moon is Illuminated
Today
First Quarter
Oct 8
Full
Oct 15
Last Quarter
Oct 23
New
Oct 30
First Quarter

Today's Extremes

State Highs State Lows

Community

WunderPhotos

Upload Photos

1,758,294 photos uploaded!

WunderBlogs® & News

Nearby

Snow Depth

Station Depth Elevation
No new snow has been reported.

Earthquake Activity

City Distance Mag. Time & Date
No recent earthquake activity has been reported nearby.
Minimum magnitude displayed is 2.5.

Coastal Water Temperatures

Place Temperature
No Stations Reporting

Nearby Weather Stations